sensor_id;sensor_type;location;lat;lon;timestamp;P1;durP1;ratioP1;P2;durP2;ratioP2
35506;SDS011;36461;52.018;21.036;2022-11-20T00:01:14;35.60;;;20.57;;
35506;SDS011;36461;52.018;21.036;2022-11-20T00:03:47;32.48;;;19.52;;
35506;SDS011;36461;52.018;21.036;2022-11-20T00:06:15;36.68;;;20.95;;
35506;SDS011;36461;52.018;21.036;2022-11-20T00:08:44;35.65;;;21.23;;
35506;SDS011;36461;52.018;21.036;2022-11-20T00:11:12;35.73;;;20.92;;
35506;SDS011;36461;52.018;21.036;2022-11-20T00:13:44;35.90;;;21.60;;
35506;SDS011;36461;52.018;21.036;2022-11-20T00:16:13;36.20;;;21.52;;
35506;SDS011;36461;52.018;21.036;2022-11-20T00:18:41;36.25;;;21.10;;
35506;SDS011;36461;52.018;21.036;2022-11-20T00:21:16;35.73;;;21.70;;
35506;SDS011;36461;52.018;21.036;2022-11-20T00:23:44;37.50;;;21.42;;
35506;SDS011;36461;52.018;21.036;2022-11-20T00:26:16;34.73;;;20.75;;
35506;SDS011;36461;52.018;21.036;2022-11-20T00:28:42;38.28;;;21.48;;
35506;SDS011;36461;52.018;21.036;2022-11-20T00:31:13;39.63;;;21.55;;
35506;SDS011;36461;52.018;21.036;2022-11-20T00:33:42;39.23;;;22.05;;
35506;SDS011;36461;52.018;21.036;2022-11-20T00:36:10;38.92;;;22.40;;
35506;SDS011;36461;52.018;21.036;2022-11-20T00:38:43;37.45;;;21.33;;
35506;SDS011;36461;52.018;21.036;2022-11-20T00:41:11;40.17;;;22.52;;
35506;SDS011;36461;52.018;21.036;2022-11-20T00:43:41;36.68;;;21.80;;
35506;SDS011;36461;52.018;21.036;2022-11-20T00:48:43;38.15;;;22.65;;
35506;SDS011;36461;52.018;21.036;2022-11-20T00:51:11;42.70;;;24.85;;
35506;SDS011;36461;52.018;21.036;2022-11-20T00:53:41;40.30;;;23.57;;
35506;SDS011;36461;52.018;21.036;2022-11-20T00:56:12;42.40;;;24.18;;
35506;SDS011;36461;52.018;21.036;2022-11-20T00:58:42;39.20;;;22.65;;
35506;SDS011;36461;52.018;21.036;2022-11-20T01:01:15;39.38;;;23.27;;
35506;SDS011;36461;52.018;21.036;2022-11-20T01:03:50;41.48;;;22.85;;
35506;SDS011;36461;52.018;21.036;2022-11-20T01:06:20;37.85;;;21.62;;
35506;SDS011;36461;52.018;21.036;2022-11-20T01:08:52;41.80;;;22.17;;
35506;SDS011;36461;52.018;21.036;2022-11-20T01:11:22;36.83;;;21.90;;
35506;SDS011;36461;52.018;21.036;2022-11-20T01:13:54;40.12;;;22.02;;
35506;SDS011;36461;52.018;21.036;2022-11-20T01:16:24;37.00;;;21.60;;
35506;SDS011;36461;52.018;21.036;2022-11-20T01:18:58;37.90;;;21.95;;
35506;SDS011;36461;52.018;21.036;2022-11-20T01:21:37;36.40;;;21.00;;
35506;SDS011;36461;52.018;21.036;2022-11-20T01:24:06;35.28;;;21.00;;
35506;SDS011;36461;52.018;21.036;2022-11-20T01:26:37;38.58;;;21.20;;
35506;SDS011;36461;52.018;21.036;2022-11-20T01:29:07;37.65;;;21.95;;
35506;SDS011;36461;52.018;21.036;2022-11-20T01:31:37;38.73;;;21.60;;
35506;SDS011;36461;52.018;21.036;2022-11-20T01:34:04;31.40;;;16.20;;
35506;SDS011;36461;52.018;21.036;2022-11-20T01:36:35;38.88;;;21.62;;
35506;SDS011;36461;52.018;21.036;2022-11-20T01:39:04;33.83;;;20.50;;
35506;SDS011;36461;52.018;21.036;2022-11-20T01:41:34;35.98;;;20.95;;
35506;SDS011;36461;52.018;21.036;2022-11-20T01:44:20;36.35;;;20.72;;
35506;SDS011;36461;52.018;21.036;2022-11-20T01:47:09;34.92;;;19.25;;
35506;SDS011;36461;52.018;21.036;2022-11-20T01:52:13;35.33;;;20.75;;
35506;SDS011;36461;52.018;21.036;2022-11-20T01:54:46;33.70;;;19.60;;
35506;SDS011;36461;52.018;21.036;2022-11-20T01:57:18;31.73;;;19.05;;
35506;SDS011;36461;52.018;21.036;2022-11-20T01:59:52;34.75;;;20.25;;
35506;SDS011;36461;52.018;21.036;2022-11-20T02:02:20;33.98;;;19.48;;
35506;SDS011;36461;52.018;21.036;2022-11-20T02:04:48;32.05;;;19.10;;
35506;SDS011;36461;52.018;21.036;2022-11-20T02:07:17;37.45;;;20.32;;
35506;SDS011;36461;52.018;21.036;2022-11-20T02:09:45;28.77;;;17.60;;
35506;SDS011;36461;52.018;21.036;2022-11-20T02:12:11;31.75;;;19.17;;
35506;SDS011;36461;52.018;21.036;2022-11-20T02:14:39;30.30;;;18.70;;
35506;SDS011;36461;52.018;21.036;2022-11-20T02:17:06;35.50;;;20.75;;
35506;SDS011;36461;52.018;21.036;2022-11-20T02:19:32;33.53;;;19.55;;
35506;SDS011;36461;52.018;21.036;2022-11-20T02:24:42;32.58;;;19.23;;
35506;SDS011;36461;52.018;21.036;2022-11-20T02:27:13;33.58;;;20.37;;
35506;SDS011;36461;52.018;21.036;2022-11-20T02:32:23;33.02;;;20.70;;
35506;SDS011;36461;52.018;21.036;2022-11-20T02:34:55;34.58;;;20.17;;
35506;SDS011;36461;52.018;21.036;2022-11-20T02:37:22;36.55;;;20.92;;
35506;SDS011;36461;52.018;21.036;2022-11-20T02:39:53;33.70;;;21.07;;
35506;SDS011;36461;52.018;21.036;2022-11-20T02:42:19;34.85;;;20.92;;
35506;SDS011;36461;52.018;21.036;2022-11-20T02:44:46;36.42;;;20.37;;
35506;SDS011;36461;52.018;21.036;2022-11-20T02:47:12;38.20;;;20.65;;
35506;SDS011;36461;52.018;21.036;2022-11-20T02:49:38;39.20;;;22.15;;
35506;SDS011;36461;52.018;21.036;2022-11-20T02:52:04;34.92;;;21.40;;
35506;SDS011;36461;52.018;21.036;2022-11-20T02:54:31;29.87;;;16.62;;
35506;SDS011;36461;52.018;21.036;2022-11-20T02:56:57;40.65;;;22.22;;
35506;SDS011;36461;52.018;21.036;2022-11-20T02:59:23;35.20;;;21.10;;
35506;SDS011;36461;52.018;21.036;2022-11-20T03:01:50;38.55;;;22.58;;
35506;SDS011;36461;52.018;21.036;2022-11-20T03:04:16;38.75;;;21.68;;
35506;SDS011;36461;52.018;21.036;2022-11-20T03:06:42;32.60;;;16.73;;
35506;SDS011;36461;52.018;21.036;2022-11-20T03:09:09;39.65;;;21.93;;
35506;SDS011;36461;52.018;21.036;2022-11-20T03:11:35;38.63;;;22.20;;
35506;SDS011;36461;52.018;21.036;2022-11-20T03:14:03;38.48;;;21.00;;
35506;SDS011;36461;52.018;21.036;2022-11-20T03:16:31;40.45;;;21.77;;
35506;SDS011;36461;52.018;21.036;2022-11-20T03:18:58;35.73;;;21.85;;
35506;SDS011;36461;52.018;21.036;2022-11-20T03:21:25;34.58;;;20.17;;
35506;SDS011;36461;52.018;21.036;2022-11-20T03:23:53;40.35;;;22.27;;
35506;SDS011;36461;52.018;21.036;2022-11-20T03:26:22;35.45;;;20.95;;
35506;SDS011;36461;52.018;21.036;2022-11-20T03:28:51;35.80;;;20.80;;
35506;SDS011;36461;52.018;21.036;2022-11-20T03:31:24;36.88;;;20.95;;
35506;SDS011;36461;52.018;21.036;2022-11-20T03:33:53;37.63;;;22.22;;
35506;SDS011;36461;52.018;21.036;2022-11-20T03:36:21;39.00;;;21.70;;
35506;SDS011;36461;52.018;21.036;2022-11-20T03:38:48;36.80;;;20.77;;
35506;SDS011;36461;52.018;21.036;2022-11-20T03:41:23;34.65;;;21.15;;
35506;SDS011;36461;52.018;21.036;2022-11-20T03:43:49;39.55;;;22.62;;
35506;SDS011;36461;52.018;21.036;2022-11-20T03:46:22;37.42;;;21.07;;
35506;SDS011;36461;52.018;21.036;2022-11-20T03:48:50;38.17;;;21.52;;
35506;SDS011;36461;52.018;21.036;2022-11-20T03:51:19;36.53;;;21.57;;
35506;SDS011;36461;52.018;21.036;2022-11-20T03:56:23;37.53;;;20.45;;
35506;SDS011;36461;52.018;21.036;2022-11-20T03:58:52;35.98;;;20.20;;
35506;SDS011;36461;52.018;21.036;2022-11-20T04:01:20;38.23;;;20.75;;
35506;SDS011;36461;52.018;21.036;2022-11-20T04:03:53;36.93;;;20.17;;
35506;SDS011;36461;52.018;21.036;2022-11-20T04:06:22;35.88;;;20.20;;
35506;SDS011;36461;52.018;21.036;2022-11-20T04:08:53;37.25;;;21.40;;
35506;SDS011;36461;52.018;21.036;2022-11-20T04:11:22;38.65;;;21.10;;
35506;SDS011;36461;52.018;21.036;2022-11-20T04:13:55;35.85;;;20.80;;
35506;SDS011;36461;52.018;21.036;2022-11-20T04:16:26;38.70;;;22.20;;
35506;SDS011;36461;52.018;21.036;2022-11-20T04:19:00;33.10;;;20.57;;
35506;SDS011;36461;52.018;21.036;2022-11-20T04:21:28;38.88;;;21.02;;
35506;SDS011;36461;52.018;21.036;2022-11-20T04:23:55;37.70;;;22.55;;
35506;SDS011;36461;52.018;21.036;2022-11-20T04:26:23;38.92;;;22.52;;
35506;SDS011;36461;52.018;21.036;2022-11-20T04:28:52;36.85;;;21.10;;
35506;SDS011;36461;52.018;21.036;2022-11-20T04:31:23;39.23;;;21.25;;
35506;SDS011;36461;52.018;21.036;2022-11-20T04:33:53;35.88;;;20.52;;
35506;SDS011;36461;52.018;21.036;2022-11-20T04:36:23;36.13;;;21.42;;
35506;SDS011;36461;52.018;21.036;2022-11-20T04:38:55;37.73;;;22.13;;
35506;SDS011;36461;52.018;21.036;2022-11-20T04:41:30;35.52;;;20.32;;
35506;SDS011;36461;52.018;21.036;2022-11-20T04:44:00;35.13;;;21.55;;
35506;SDS011;36461;52.018;21.036;2022-11-20T04:46:32;33.92;;;20.75;;
35506;SDS011;36461;52.018;21.036;2022-11-20T04:49:05;38.83;;;21.48;;
35506;SDS011;36461;52.018;21.036;2022-11-20T04:51:32;39.75;;;22.02;;
35506;SDS011;36461;52.018;21.036;2022-11-20T04:53:59;38.83;;;21.12;;
35506;SDS011;36461;52.018;21.036;2022-11-20T04:56:26;41.40;;;20.65;;
35506;SDS011;36461;52.018;21.036;2022-11-20T04:58:53;37.55;;;21.57;;
35506;SDS011;36461;52.018;21.036;2022-11-20T05:01:21;34.70;;;20.90;;
35506;SDS011;36461;52.018;21.036;2022-11-20T05:03:49;39.92;;;21.82;;
35506;SDS011;36461;52.018;21.036;2022-11-20T05:06:17;37.90;;;21.97;;
35506;SDS011;36461;52.018;21.036;2022-11-20T05:08:47;41.50;;;22.20;;
35506;SDS011;36461;52.018;21.036;2022-11-20T05:13:42;38.40;;;19.87;;
35506;SDS011;36461;52.018;21.036;2022-11-20T05:16:10;33.73;;;19.50;;
35506;SDS011;36461;52.018;21.036;2022-11-20T05:18:40;32.88;;;19.70;;
35506;SDS011;36461;52.018;21.036;2022-11-20T05:21:07;40.25;;;21.07;;
35506;SDS011;36461;52.018;21.036;2022-11-20T05:23:36;37.58;;;20.88;;
35506;SDS011;36461;52.018;21.036;2022-11-20T05:26:03;35.30;;;20.23;;
35506;SDS011;36461;52.018;21.036;2022-11-20T05:28:31;36.10;;;21.23;;
35506;SDS011;36461;52.018;21.036;2022-11-20T05:31:05;39.85;;;22.25;;
35506;SDS011;36461;52.018;21.036;2022-11-20T05:33:34;34.98;;;20.30;;
35506;SDS011;36461;52.018;21.036;2022-11-20T05:36:02;34.70;;;21.17;;
35506;SDS011;36461;52.018;21.036;2022-11-20T05:38:30;39.27;;;21.45;;
35506;SDS011;36461;52.018;21.036;2022-11-20T05:43:35;36.42;;;20.75;;
35506;SDS011;36461;52.018;21.036;2022-11-20T05:46:04;36.13;;;21.45;;
35506;SDS011;36461;52.018;21.036;2022-11-20T05:48:32;37.73;;;20.40;;
35506;SDS011;36461;52.018;21.036;2022-11-20T05:51:00;37.05;;;21.20;;
35506;SDS011;36461;52.018;21.036;2022-11-20T05:53:29;38.13;;;20.37;;
35506;SDS011;36461;52.018;21.036;2022-11-20T05:55:57;41.05;;;23.12;;
35506;SDS011;36461;52.018;21.036;2022-11-20T05:58:25;40.75;;;23.30;;
35506;SDS011;36461;52.018;21.036;2022-11-20T06:01:02;39.38;;;23.12;;
35506;SDS011;36461;52.018;21.036;2022-11-20T06:03:39;40.48;;;22.17;;
35506;SDS011;36461;52.018;21.036;2022-11-20T06:06:08;43.38;;;24.32;;
35506;SDS011;36461;52.018;21.036;2022-11-20T06:08:34;41.85;;;23.00;;
35506;SDS011;36461;52.018;21.036;2022-11-20T06:13:32;38.75;;;22.60;;
35506;SDS011;36461;52.018;21.036;2022-11-20T06:15:59;44.67;;;23.70;;
35506;SDS011;36461;52.018;21.036;2022-11-20T06:21:01;31.37;;;19.77;;
35506;SDS011;36461;52.018;21.036;2022-11-20T06:23:35;38.65;;;21.15;;
35506;SDS011;36461;52.018;21.036;2022-11-20T06:26:03;32.80;;;20.43;;
35506;SDS011;36461;52.018;21.036;2022-11-20T06:28:39;33.80;;;18.12;;
35506;SDS011;36461;52.018;21.036;2022-11-20T06:31:06;36.08;;;20.62;;
35506;SDS011;36461;52.018;21.036;2022-11-20T06:33:33;41.40;;;22.77;;
35506;SDS011;36461;52.018;21.036;2022-11-20T06:36:00;37.78;;;21.60;;
35506;SDS011;36461;52.018;21.036;2022-11-20T06:38:27;34.75;;;22.35;;
35506;SDS011;36461;52.018;21.036;2022-11-20T06:40:54;38.53;;;22.32;;
35506;SDS011;36461;52.018;21.036;2022-11-20T06:43:22;39.95;;;23.20;;
35506;SDS011;36461;52.018;21.036;2022-11-20T06:45:56;40.40;;;23.50;;
35506;SDS011;36461;52.018;21.036;2022-11-20T06:48:26;42.80;;;23.35;;
35506;SDS011;36461;52.018;21.036;2022-11-20T06:50:54;41.55;;;23.50;;
35506;SDS011;36461;52.018;21.036;2022-11-20T06:53:21;42.78;;;24.23;;
35506;SDS011;36461;52.018;21.036;2022-11-20T06:55:50;44.08;;;25.77;;
35506;SDS011;36461;52.018;21.036;2022-11-20T06:58:17;41.80;;;24.50;;
35506;SDS011;36461;52.018;21.036;2022-11-20T07:00:44;43.60;;;24.85;;
35506;SDS011;36461;52.018;21.036;2022-11-20T07:03:11;45.65;;;26.27;;
35506;SDS011;36461;52.018;21.036;2022-11-20T07:05:38;38.88;;;24.05;;
35506;SDS011;36461;52.018;21.036;2022-11-20T07:08:06;44.42;;;24.82;;
35506;SDS011;36461;52.018;21.036;2022-11-20T07:10:33;45.10;;;25.23;;
35506;SDS011;36461;52.018;21.036;2022-11-20T07:15:26;44.50;;;25.68;;
35506;SDS011;36461;52.018;21.036;2022-11-20T07:17:52;46.30;;;26.37;;
35506;SDS011;36461;52.018;21.036;2022-11-20T07:20:18;51.92;;;29.02;;
35506;SDS011;36461;52.018;21.036;2022-11-20T07:22:45;48.95;;;27.77;;
35506;SDS011;36461;52.018;21.036;2022-11-20T07:25:11;54.03;;;30.05;;
35506;SDS011;36461;52.018;21.036;2022-11-20T07:27:37;56.37;;;30.23;;
35506;SDS011;36461;52.018;21.036;2022-11-20T07:30:04;58.95;;;32.65;;
35506;SDS011;36461;52.018;21.036;2022-11-20T07:32:33;46.28;;;27.67;;
35506;SDS011;36461;52.018;21.036;2022-11-20T07:34:59;48.23;;;27.27;;
35506;SDS011;36461;52.018;21.036;2022-11-20T07:37:25;48.13;;;27.07;;
35506;SDS011;36461;52.018;21.036;2022-11-20T07:39:51;46.75;;;27.50;;
35506;SDS011;36461;52.018;21.036;2022-11-20T07:42:18;47.55;;;27.98;;
35506;SDS011;36461;52.018;21.036;2022-11-20T07:44:44;47.78;;;26.45;;
35506;SDS011;36461;52.018;21.036;2022-11-20T07:47:10;38.55;;;21.05;;
35506;SDS011;36461;52.018;21.036;2022-11-20T07:49:37;46.70;;;26.17;;
35506;SDS011;36461;52.018;21.036;2022-11-20T07:52:03;50.05;;;27.73;;
35506;SDS011;36461;52.018;21.036;2022-11-20T07:54:29;46.18;;;25.70;;
35506;SDS011;36461;52.018;21.036;2022-11-20T07:56:55;48.80;;;27.52;;
35506;SDS011;36461;52.018;21.036;2022-11-20T07:59:22;52.55;;;30.57;;
35506;SDS011;36461;52.018;21.036;2022-11-20T08:01:48;45.70;;;25.90;;
35506;SDS011;36461;52.018;21.036;2022-11-20T08:04:14;49.27;;;27.45;;
35506;SDS011;36461;52.018;21.036;2022-11-20T08:06:41;44.83;;;25.77;;
35506;SDS011;36461;52.018;21.036;2022-11-20T08:09:08;47.78;;;28.07;;
35506;SDS011;36461;52.018;21.036;2022-11-20T08:11:35;44.58;;;26.52;;
35506;SDS011;36461;52.018;21.036;2022-11-20T08:14:20;43.90;;;26.73;;
35506;SDS011;36461;52.018;21.036;2022-11-20T08:16:47;35.43;;;19.70;;
35506;SDS011;36461;52.018;21.036;2022-11-20T08:19:17;44.40;;;26.30;;
35506;SDS011;36461;52.018;21.036;2022-11-20T08:21:44;45.15;;;25.72;;
35506;SDS011;36461;52.018;21.036;2022-11-20T08:24:11;44.40;;;27.40;;
35506;SDS011;36461;52.018;21.036;2022-11-20T08:26:38;44.27;;;27.15;;
35506;SDS011;36461;52.018;21.036;2022-11-20T08:29:06;42.70;;;26.27;;
35506;SDS011;36461;52.018;21.036;2022-11-20T08:31:33;43.20;;;26.35;;
35506;SDS011;36461;52.018;21.036;2022-11-20T08:34:01;48.15;;;28.12;;
35506;SDS011;36461;52.018;21.036;2022-11-20T08:36:27;39.48;;;25.62;;
35506;SDS011;36461;52.018;21.036;2022-11-20T08:38:54;46.98;;;28.47;;
35506;SDS011;36461;52.018;21.036;2022-11-20T08:41:22;46.05;;;26.73;;
35506;SDS011;36461;52.018;21.036;2022-11-20T08:43:53;43.55;;;26.73;;
35506;SDS011;36461;52.018;21.036;2022-11-20T08:46:25;40.88;;;25.70;;
35506;SDS011;36461;52.018;21.036;2022-11-20T08:48:55;44.88;;;27.50;;
35506;SDS011;36461;52.018;21.036;2022-11-20T08:51:21;40.92;;;25.62;;
35506;SDS011;36461;52.018;21.036;2022-11-20T08:53:47;41.13;;;25.92;;
35506;SDS011;36461;52.018;21.036;2022-11-20T08:56:17;41.73;;;25.27;;
35506;SDS011;36461;52.018;21.036;2022-11-20T08:58:43;40.20;;;25.45;;
35506;SDS011;36461;52.018;21.036;2022-11-20T09:03:37;39.63;;;25.20;;
35506;SDS011;36461;52.018;21.036;2022-11-20T09:06:04;41.60;;;25.65;;
35506;SDS011;36461;52.018;21.036;2022-11-20T09:08:33;40.58;;;24.40;;
35506;SDS011;36461;52.018;21.036;2022-11-20T09:11:01;45.73;;;27.35;;
35506;SDS011;36461;52.018;21.036;2022-11-20T09:13:28;40.45;;;25.57;;
35506;SDS011;36461;52.018;21.036;2022-11-20T09:16:01;39.48;;;24.57;;
35506;SDS011;36461;52.018;21.036;2022-11-20T09:18:27;39.98;;;23.57;;
35506;SDS011;36461;52.018;21.036;2022-11-20T09:20:56;37.05;;;24.60;;
35506;SDS011;36461;52.018;21.036;2022-11-20T09:23:25;45.92;;;26.65;;
35506;SDS011;36461;52.018;21.036;2022-11-20T09:25:53;41.83;;;26.17;;
35506;SDS011;36461;52.018;21.036;2022-11-20T09:28:21;40.00;;;25.23;;
35506;SDS011;36461;52.018;21.036;2022-11-20T09:30:47;42.73;;;25.48;;
35506;SDS011;36461;52.018;21.036;2022-11-20T09:33:14;42.00;;;25.02;;
35506;SDS011;36461;52.018;21.036;2022-11-20T09:35:40;39.65;;;23.57;;
35506;SDS011;36461;52.018;21.036;2022-11-20T09:38:06;39.35;;;24.55;;
35506;SDS011;36461;52.018;21.036;2022-11-20T09:40:34;39.80;;;25.48;;
35506;SDS011;36461;52.018;21.036;2022-11-20T09:49:03;41.10;;;24.40;;
35506;SDS011;36461;52.018;21.036;2022-11-20T09:52:00;39.35;;;24.92;;
35506;SDS011;36461;52.018;21.036;2022-11-20T09:54:39;39.20;;;24.67;;
35506;SDS011;36461;52.018;21.036;2022-11-20T09:57:10;44.90;;;26.33;;
35506;SDS011;36461;52.018;21.036;2022-11-20T09:59:41;39.85;;;23.73;;
35506;SDS011;36461;52.018;21.036;2022-11-20T10:02:16;41.42;;;25.02;;
35506;SDS011;36461;52.018;21.036;2022-11-20T10:10:49;37.00;;;23.35;;
35506;SDS011;36461;52.018;21.036;2022-11-20T10:22:42;35.90;;;22.70;;
35506;SDS011;36461;52.018;21.036;2022-11-20T10:25:56;42.95;;;25.72;;
35506;SDS011;36461;52.018;21.036;2022-11-20T10:28:17;37.35;;;23.75;;
35506;SDS011;36461;52.018;21.036;2022-11-20T10:31:04;35.43;;;22.07;;
35506;SDS011;36461;52.018;21.036;2022-11-20T10:33:41;35.00;;;22.22;;
35506;SDS011;36461;52.018;21.036;2022-11-20T10:36:19;36.73;;;23.12;;
35506;SDS011;36461;52.018;21.036;2022-11-20T10:38:50;39.00;;;24.20;;
35506;SDS011;36461;52.018;21.036;2022-11-20T10:41:30;42.85;;;25.55;;
35506;SDS011;36461;52.018;21.036;2022-11-20T10:44:17;34.53;;;21.87;;
35506;SDS011;36461;52.018;21.036;2022-11-20T10:47:08;36.28;;;22.62;;
35506;SDS011;36461;52.018;21.036;2022-11-20T10:49:39;37.40;;;23.22;;
35506;SDS011;36461;52.018;21.036;2022-11-20T10:58:04;37.40;;;22.93;;
35506;SDS011;36461;52.018;21.036;2022-11-20T11:00:35;34.03;;;22.42;;
35506;SDS011;36461;52.018;21.036;2022-11-20T11:03:02;33.78;;;22.62;;
35506;SDS011;36461;52.018;21.036;2022-11-20T11:05:51;38.78;;;24.05;;
35506;SDS011;36461;52.018;21.036;2022-11-20T11:08:17;36.73;;;23.57;;
35506;SDS011;36461;52.018;21.036;2022-11-20T11:11:31;47.35;;;27.67;;
35506;SDS011;36461;52.018;21.036;2022-11-20T11:13:26;37.40;;;23.47;;
35506;SDS011;36461;52.018;21.036;2022-11-20T11:15:55;36.42;;;23.12;;
35506;SDS011;36461;52.018;21.036;2022-11-20T11:18:24;36.50;;;23.98;;
35506;SDS011;36461;52.018;21.036;2022-11-20T11:20:56;38.30;;;23.52;;
35506;SDS011;36461;52.018;21.036;2022-11-20T11:23:31;33.33;;;21.75;;
35506;SDS011;36461;52.018;21.036;2022-11-20T11:26:05;30.85;;;20.35;;
35506;SDS011;36461;52.018;21.036;2022-11-20T11:28:35;33.42;;;22.70;;
35506;SDS011;36461;52.018;21.036;2022-11-20T11:31:01;38.65;;;23.50;;
35506;SDS011;36461;52.018;21.036;2022-11-20T11:33:29;35.17;;;21.90;;
35506;SDS011;36461;52.018;21.036;2022-11-20T11:36:02;33.88;;;21.60;;
35506;SDS011;36461;52.018;21.036;2022-11-20T11:41:06;33.50;;;21.87;;
35506;SDS011;36461;52.018;21.036;2022-11-20T11:43:37;32.20;;;21.20;;
35506;SDS011;36461;52.018;21.036;2022-11-20T11:46:32;31.15;;;20.80;;
35506;SDS011;36461;52.018;21.036;2022-11-20T11:54:31;31.95;;;20.12;;
35506;SDS011;36461;52.018;21.036;2022-11-20T12:00:20;32.95;;;20.80;;
35506;SDS011;36461;52.018;21.036;2022-11-20T12:02:57;32.63;;;20.85;;
35506;SDS011;36461;52.018;21.036;2022-11-20T12:05:45;36.95;;;20.75;;
35506;SDS011;36461;52.018;21.036;2022-11-20T12:11:12;33.25;;;20.92;;
35506;SDS011;36461;52.018;21.036;2022-11-20T12:13:58;31.62;;;20.05;;
35506;SDS011;36461;52.018;21.036;2022-11-20T12:16:47;31.05;;;20.05;;
35506;SDS011;36461;52.018;21.036;2022-11-20T12:19:13;32.98;;;20.65;;
35506;SDS011;36461;52.018;21.036;2022-11-20T12:30:41;30.52;;;19.48;;
35506;SDS011;36461;52.018;21.036;2022-11-20T12:45:12;33.33;;;20.77;;
35506;SDS011;36461;52.018;21.036;2022-11-20T12:59:27;29.98;;;19.10;;
35506;SDS011;36461;52.018;21.036;2022-11-20T13:02:02;31.00;;;19.92;;
35506;SDS011;36461;52.018;21.036;2022-11-20T13:05:10;29.48;;;19.37;;
35506;SDS011;36461;52.018;21.036;2022-11-20T13:07:44;33.67;;;21.12;;
35506;SDS011;36461;52.018;21.036;2022-11-20T13:13:03;30.85;;;20.02;;
35506;SDS011;36461;52.018;21.036;2022-11-20T13:15:42;30.45;;;20.15;;
35506;SDS011;36461;52.018;21.036;2022-11-20T13:18:14;33.42;;;21.52;;
35506;SDS011;36461;52.018;21.036;2022-11-20T13:20:45;33.65;;;20.48;;
35506;SDS011;36461;52.018;21.036;2022-11-20T13:23:22;34.50;;;21.10;;
35506;SDS011;36461;52.018;21.036;2022-11-20T13:26:02;34.03;;;21.17;;
35506;SDS011;36461;52.018;21.036;2022-11-20T13:28:32;35.73;;;21.33;;
35506;SDS011;36461;52.018;21.036;2022-11-20T13:30:59;29.48;;;20.02;;
35506;SDS011;36461;52.018;21.036;2022-11-20T13:33:32;33.33;;;21.75;;
35506;SDS011;36461;52.018;21.036;2022-11-20T13:36:04;33.70;;;20.95;;
35506;SDS011;36461;52.018;21.036;2022-11-20T13:38:49;33.55;;;20.70;;
35506;SDS011;36461;52.018;21.036;2022-11-20T13:41:28;33.42;;;21.25;;
35506;SDS011;36461;52.018;21.036;2022-11-20T13:44:08;33.80;;;21.75;;
35506;SDS011;36461;52.018;21.036;2022-11-20T13:46:43;32.08;;;20.50;;
35506;SDS011;36461;52.018;21.036;2022-11-20T13:52:03;33.65;;;20.97;;
35506;SDS011;36461;52.018;21.036;2022-11-20T13:57:56;31.60;;;21.20;;
35506;SDS011;36461;52.018;21.036;2022-11-20T14:00:34;34.55;;;23.62;;
35506;SDS011;36461;52.018;21.036;2022-11-20T14:05:46;29.95;;;20.15;;
35506;SDS011;36461;52.018;21.036;2022-11-20T14:08:43;40.88;;;25.15;;
35506;SDS011;36461;52.018;21.036;2022-11-20T14:11:04;40.30;;;24.43;;
35506;SDS011;36461;52.018;21.036;2022-11-20T14:13:54;38.53;;;24.15;;
35506;SDS011;36461;52.018;21.036;2022-11-20T14:16:30;35.45;;;22.35;;
35506;SDS011;36461;52.018;21.036;2022-11-20T14:21:53;39.40;;;24.18;;
35506;SDS011;36461;52.018;21.036;2022-11-20T14:24:36;35.15;;;22.40;;
35506;SDS011;36461;52.018;21.036;2022-11-20T14:29:33;31.57;;;21.23;;
35506;SDS011;36461;52.018;21.036;2022-11-20T14:32:02;38.33;;;23.55;;
35506;SDS011;36461;52.018;21.036;2022-11-20T14:34:31;34.95;;;22.58;;
35506;SDS011;36461;52.018;21.036;2022-11-20T14:37:02;36.23;;;22.58;;
35506;SDS011;36461;52.018;21.036;2022-11-20T14:39:35;35.68;;;22.65;;
35506;SDS011;36461;52.018;21.036;2022-11-20T14:42:18;34.98;;;22.07;;
35506;SDS011;36461;52.018;21.036;2022-11-20T14:44:51;34.85;;;22.40;;
35506;SDS011;36461;52.018;21.036;2022-11-20T14:47:25;36.93;;;23.00;;
35506;SDS011;36461;52.018;21.036;2022-11-20T14:49:55;34.40;;;22.60;;
35506;SDS011;36461;52.018;21.036;2022-11-20T14:52:25;37.15;;;21.77;;
35506;SDS011;36461;52.018;21.036;2022-11-20T14:54:54;40.65;;;23.55;;
35506;SDS011;36461;52.018;21.036;2022-11-20T15:02:48;38.42;;;23.42;;
35506;SDS011;36461;52.018;21.036;2022-11-20T15:05:14;38.83;;;22.50;;
35506;SDS011;36461;52.018;21.036;2022-11-20T15:07:48;36.45;;;22.73;;
35506;SDS011;36461;52.018;21.036;2022-11-20T15:10:25;35.40;;;22.70;;
35506;SDS011;36461;52.018;21.036;2022-11-20T15:15:29;32.35;;;20.77;;
35506;SDS011;36461;52.018;21.036;2022-11-20T15:20:31;37.05;;;21.23;;
35506;SDS011;36461;52.018;21.036;2022-11-20T15:22:59;34.23;;;22.20;;
35506;SDS011;36461;52.018;21.036;2022-11-20T15:25:26;35.73;;;22.45;;
35506;SDS011;36461;52.018;21.036;2022-11-20T15:27:54;34.43;;;22.95;;
35506;SDS011;36461;52.018;21.036;2022-11-20T15:30:22;33.15;;;20.90;;
35506;SDS011;36461;52.018;21.036;2022-11-20T15:32:49;34.70;;;22.17;;
35506;SDS011;36461;52.018;21.036;2022-11-20T15:35:15;34.40;;;21.95;;
35506;SDS011;36461;52.018;21.036;2022-11-20T15:37:42;33.38;;;22.27;;
35506;SDS011;36461;52.018;21.036;2022-11-20T15:40:09;39.27;;;24.47;;
35506;SDS011;36461;52.018;21.036;2022-11-20T15:42:37;35.13;;;22.48;;
35506;SDS011;36461;52.018;21.036;2022-11-20T15:45:03;37.40;;;23.42;;
35506;SDS011;36461;52.018;21.036;2022-11-20T15:47:32;36.98;;;23.07;;
35506;SDS011;36461;52.018;21.036;2022-11-20T15:50:00;42.95;;;26.15;;
35506;SDS011;36461;52.018;21.036;2022-11-20T15:52:27;41.37;;;25.68;;
35506;SDS011;36461;52.018;21.036;2022-11-20T15:54:53;47.05;;;26.27;;
35506;SDS011;36461;52.018;21.036;2022-11-20T15:57:19;40.28;;;24.70;;
35506;SDS011;36461;52.018;21.036;2022-11-20T15:59:46;41.13;;;25.82;;
35506;SDS011;36461;52.018;21.036;2022-11-20T16:02:13;40.88;;;26.10;;
35506;SDS011;36461;52.018;21.036;2022-11-20T16:04:41;44.75;;;27.82;;
35506;SDS011;36461;52.018;21.036;2022-11-20T16:09:34;40.98;;;25.20;;
35506;SDS011;36461;52.018;21.036;2022-11-20T16:12:00;42.17;;;25.57;;
35506;SDS011;36461;52.018;21.036;2022-11-20T16:14:26;45.15;;;26.45;;
35506;SDS011;36461;52.018;21.036;2022-11-20T16:17:12;46.25;;;28.12;;
35506;SDS011;36461;52.018;21.036;2022-11-20T16:19:39;47.58;;;27.45;;
35506;SDS011;36461;52.018;21.036;2022-11-20T16:22:05;47.13;;;26.07;;
35506;SDS011;36461;52.018;21.036;2022-11-20T16:24:33;43.02;;;25.05;;
35506;SDS011;36461;52.018;21.036;2022-11-20T16:27:00;44.53;;;25.48;;
35506;SDS011;36461;52.018;21.036;2022-11-20T16:29:26;42.80;;;24.70;;
35506;SDS011;36461;52.018;21.036;2022-11-20T16:31:53;46.10;;;24.98;;
35506;SDS011;36461;52.018;21.036;2022-11-20T16:34:19;38.08;;;23.75;;
35506;SDS011;36461;52.018;21.036;2022-11-20T16:36:45;42.83;;;24.80;;
35506;SDS011;36461;52.018;21.036;2022-11-20T16:39:12;34.18;;;21.25;;